sensor_id;sensor_type;location;lat;lon;timestamp;pressure;altitude;pressure_sealevel;temperature;humidity
27294;BME280;14785;52.556;13.430;2023-04-24T00:00:56;99509.38;;;16.38;100.00
27294;BME280;14785;52.556;13.430;2023-04-24T00:03:22;99511.03;;;16.39;100.00
27294;BME280;14785;52.556;13.430;2023-04-24T00:05:50;99495.66;;;16.28;100.00
27294;BME280;14785;52.556;13.430;2023-04-24T00:08:17;99498.94;;;16.30;100.00
27294;BME280;14785;52.556;13.430;2023-04-24T00:10:43;99498.28;;;16.10;100.00
27294;BME280;14785;52.556;13.430;2023-04-24T00:13:09;99503.31;;;16.24;100.00
27294;BME280;14785;52.556;13.430;2023-04-24T00:15:35;99489.97;;;16.18;100.00
27294;BME280;14785;52.556;13.430;2023-04-24T00:18:00;99482.97;;;16.35;100.00
27294;BME280;14785;52.556;13.430;2023-04-24T00:20:29;99488.22;;;16.30;100.00
27294;BME280;14785;52.556;13.430;2023-04-24T00:23:04;99486.09;;;16.32;100.00
27294;BME280;14785;52.556;13.430;2023-04-24T00:25:30;99479.25;;;16.18;100.00
27294;BME280;14785;52.556;13.430;2023-04-24T00:27:55;99469.53;;;16.17;100.00
27294;BME280;14785;52.556;13.430;2023-04-24T00:30:21;99467.97;;;16.27;100.00
27294;BME280;14785;52.556;13.430;2023-04-24T00:32:46;99469.69;;;16.22;100.00
27294;BME280;14785;52.556;13.430;2023-04-24T00:35:12;99463.94;;;16.18;100.00
27294;BME280;14785;52.556;13.430;2023-04-24T00:37:37;99462.44;;;16.04;100.00
27294;BME280;14785;52.556;13.430;2023-04-24T00:40:03;99453.84;;;15.96;100.00
27294;BME280;14785;52.556;13.430;2023-04-24T00:42:28;99454.66;;;15.72;100.00
27294;BME280;14785;52.556;13.430;2023-04-24T00:44:56;99450.19;;;15.66;100.00
27294;BME280;14785;52.556;13.430;2023-04-24T00:47:23;99452.09;;;15.59;100.00
27294;BME280;14785;52.556;13.430;2023-04-24T00:49:48;99445.84;;;15.65;100.00
27294;BME280;14785;52.556;13.430;2023-04-24T00:52:14;99436.19;;;15.32;100.00
27294;BME280;14785;52.556;13.430;2023-04-24T00:54:43;99443.34;;;15.70;100.00
27294;BME280;14785;52.556;13.430;2023-04-24T00:57:10;99431.53;;;15.53;100.00
27294;BME280;14785;52.556;13.430;2023-04-24T00:59:35;99430.97;;;15.69;100.00
27294;BME280;14785;52.556;13.430;2023-04-24T01:02:01;99429.78;;;15.65;100.00
27294;BME280;14785;52.556;13.430;2023-04-24T01:04:27;99425.72;;;15.56;100.00
27294;BME280;14785;52.556;13.430;2023-04-24T01:06:54;99423.50;;;15.77;100.00
27294;BME280;14785;52.556;13.430;2023-04-24T01:09:22;99421.66;;;15.47;100.00
27294;BME280;14785;52.556;13.430;2023-04-24T01:11:48;99423.75;;;15.45;100.00
27294;BME280;14785;52.556;13.430;2023-04-24T01:14:14;99418.75;;;15.55;100.00
27294;BME280;14785;52.556;13.430;2023-04-24T01:16:40;99432.56;;;14.76;100.00
27294;BME280;14785;52.556;13.430;2023-04-24T01:19:07;99427.50;;;14.62;100.00
27294;BME280;14785;52.556;13.430;2023-04-24T01:21:34;99442.78;;;14.48;100.00
27294;BME280;14785;52.556;13.430;2023-04-24T01:24:02;99433.72;;;14.49;100.00
27294;BME280;14785;52.556;13.430;2023-04-24T01:26:27;99430.56;;;14.65;100.00
27294;BME280;14785;52.556;13.430;2023-04-24T01:28:53;99431.69;;;15.26;100.00
27294;BME280;14785;52.556;13.430;2023-04-24T01:31:18;99431.72;;;15.20;100.00
27294;BME280;14785;52.556;13.430;2023-04-24T01:33:44;99424.03;;;14.99;100.00
27294;BME280;14785;52.556;13.430;2023-04-24T01:36:11;99428.00;;;14.83;100.00
27294;BME280;14785;52.556;13.430;2023-04-24T01:38:36;99420.25;;;14.75;100.00
27294;BME280;14785;52.556;13.430;2023-04-24T01:41:02;99422.53;;;15.09;100.00
27294;BME280;14785;52.556;13.430;2023-04-24T01:43:28;99422.19;;;15.30;100.00
27294;BME280;14785;52.556;13.430;2023-04-24T01:45:54;99415.78;;;15.00;100.00
27294;BME280;14785;52.556;13.430;2023-04-24T01:48:19;99409.25;;;14.83;100.00
27294;BME280;14785;52.556;13.430;2023-04-24T01:50:45;99407.72;;;14.69;100.00
27294;BME280;14785;52.556;13.430;2023-04-24T01:53:11;99400.97;;;14.47;100.00
27294;BME280;14785;52.556;13.430;2023-04-24T01:55:36;99405.50;;;14.53;100.00
27294;BME280;14785;52.556;13.430;2023-04-24T01:58:02;99396.63;;;14.59;100.00
27294;BME280;14785;52.556;13.430;2023-04-24T02:00:27;99391.66;;;14.63;100.00
27294;BME280;14785;52.556;13.430;2023-04-24T02:02:53;99399.78;;;14.43;100.00
27294;BME280;14785;52.556;13.430;2023-04-24T02:05:18;99395.53;;;14.29;100.00
27294;BME280;14785;52.556;13.430;2023-04-24T02:07:44;99390.63;;;14.00;100.00
27294;BME280;14785;52.556;13.430;2023-04-24T02:10:10;99387.31;;;13.98;100.00
27294;BME280;14785;52.556;13.430;2023-04-24T02:12:35;99398.84;;;14.05;100.00
27294;BME280;14785;52.556;13.430;2023-04-24T02:15:01;99388.72;;;14.20;100.00
27294;BME280;14785;52.556;13.430;2023-04-24T02:17:26;99398.22;;;14.03;100.00
27294;BME280;14785;52.556;13.430;2023-04-24T02:19:52;99402.91;;;14.27;100.00
27294;BME280;14785;52.556;13.430;2023-04-24T02:22:17;99389.34;;;14.29;100.00
27294;BME280;14785;52.556;13.430;2023-04-24T02:24:42;99387.31;;;14.11;100.00
27294;BME280;14785;52.556;13.430;2023-04-24T02:27:08;99383.78;;;14.30;100.00
27294;BME280;14785;52.556;13.430;2023-04-24T02:29:33;99386.41;;;14.43;100.00
27294;BME280;14785;52.556;13.430;2023-04-24T02:31:59;99381.94;;;14.31;100.00
27294;BME280;14785;52.556;13.430;2023-04-24T02:34:24;99384.44;;;14.13;100.00
27294;BME280;14785;52.556;13.430;2023-04-24T02:36:50;99386.91;;;14.01;100.00
27294;BME280;14785;52.556;13.430;2023-04-24T02:39:15;99389.53;;;14.21;100.00
27294;BME280;14785;52.556;13.430;2023-04-24T02:41:44;99393.22;;;14.39;100.00
27294;BME280;14785;52.556;13.430;2023-04-24T02:44:09;99385.47;;;14.62;100.00
27294;BME280;14785;52.556;13.430;2023-04-24T02:46:35;99375.09;;;14.85;100.00
27294;BME280;14785;52.556;13.430;2023-04-24T02:49:00;99385.78;;;14.41;100.00
27294;BME280;14785;52.556;13.430;2023-04-24T02:51:25;99385.00;;;14.34;100.00
27294;BME280;14785;52.556;13.430;2023-04-24T02:53:52;99381.25;;;14.48;100.00
27294;BME280;14785;52.556;13.430;2023-04-24T02:56:17;99387.81;;;14.52;100.00
27294;BME280;14785;52.556;13.430;2023-04-24T02:58:43;99379.84;;;14.33;100.00
27294;BME280;14785;52.556;13.430;2023-04-24T03:01:08;99386.09;;;13.94;100.00
27294;BME280;14785;52.556;13.430;2023-04-24T03:03:35;99381.72;;;14.19;100.00
27294;BME280;14785;52.556;13.430;2023-04-24T03:06:01;99374.53;;;14.13;100.00
27294;BME280;14785;52.556;13.430;2023-04-24T03:08:27;99373.72;;;14.13;100.00
27294;BME280;14785;52.556;13.430;2023-04-24T03:10:52;99386.06;;;14.07;100.00
27294;BME280;14785;52.556;13.430;2023-04-24T03:13:18;99386.94;;;13.88;100.00
27294;BME280;14785;52.556;13.430;2023-04-24T03:15:43;99392.66;;;14.24;100.00
27294;BME280;14785;52.556;13.430;2023-04-24T03:18:09;99387.69;;;14.21;100.00
27294;BME280;14785;52.556;13.430;2023-04-24T03:20:35;99398.84;;;14.05;100.00
27294;BME280;14785;52.556;13.430;2023-04-24T03:23:02;99403.13;;;14.32;100.00
27294;BME280;14785;52.556;13.430;2023-04-24T03:25:28;99395.28;;;14.18;100.00
27294;BME280;14785;52.556;13.430;2023-04-24T03:27:53;99385.53;;;14.56;100.00
27294;BME280;14785;52.556;13.430;2023-04-24T03:30:19;99391.97;;;14.42;100.00
27294;BME280;14785;52.556;13.430;2023-04-24T03:32:45;99396.69;;;14.46;100.00
27294;BME280;14785;52.556;13.430;2023-04-24T03:35:10;99384.34;;;14.45;100.00
27294;BME280;14785;52.556;13.430;2023-04-24T03:37:36;99388.34;;;14.67;100.00
27294;BME280;14785;52.556;13.430;2023-04-24T03:40:02;99379.22;;;14.81;100.00
27294;BME280;14785;52.556;13.430;2023-04-24T03:42:27;99376.97;;;14.78;100.00
27294;BME280;14785;52.556;13.430;2023-04-24T03:44:53;99381.25;;;14.48;100.00
27294;BME280;14785;52.556;13.430;2023-04-24T03:47:18;99390.91;;;14.43;100.00
27294;BME280;14785;52.556;13.430;2023-04-24T03:49:44;99391.13;;;14.85;100.00
27294;BME280;14785;52.556;13.430;2023-04-24T03:52:09;99395.25;;;14.88;100.00
27294;BME280;14785;52.556;13.430;2023-04-24T03:54:35;99399.06;;;14.61;100.00
27294;BME280;14785;52.556;13.430;2023-04-24T03:57:00;99389.97;;;14.75;100.00
27294;BME280;14785;52.556;13.430;2023-04-24T03:59:28;99391.56;;;14.82;100.00
27294;BME280;14785;52.556;13.430;2023-04-24T04:01:53;99384.94;;;14.91;100.00
27294;BME280;14785;52.556;13.430;2023-04-24T04:04:18;99385.28;;;15.01;100.00
27294;BME280;14785;52.556;13.430;2023-04-24T04:06:44;99385.06;;;15.03;100.00
27294;BME280;14785;52.556;13.430;2023-04-24T04:09:10;99388.13;;;15.06;100.00
27294;BME280;14785;52.556;13.430;2023-04-24T04:11:36;99384.41;;;15.07;100.00
27294;BME280;14785;52.556;13.430;2023-04-24T04:14:01;99377.00;;;15.09;100.00
27294;BME280;14785;52.556;13.430;2023-04-24T04:16:27;99377.28;;;15.26;100.00
27294;BME280;14785;52.556;13.430;2023-04-24T04:18:52;99374.44;;;15.21;100.00
27294;BME280;14785;52.556;13.430;2023-04-24T04:21:18;99386.41;;;15.18;100.00
27294;BME280;14785;52.556;13.430;2023-04-24T04:23:43;99378.69;;;15.04;100.00
27294;BME280;14785;52.556;13.430;2023-04-24T04:26:09;99373.78;;;14.94;100.00
27294;BME280;14785;52.556;13.430;2023-04-24T04:28:34;99373.44;;;15.15;100.00
27294;BME280;14785;52.556;13.430;2023-04-24T04:31:01;99371.44;;;14.73;100.00
27294;BME280;14785;52.556;13.430;2023-04-24T04:33:27;99365.66;;;14.76;100.00
27294;BME280;14785;52.556;13.430;2023-04-24T04:35:52;99377.25;;;15.01;100.00
27294;BME280;14785;52.556;13.430;2023-04-24T04:38:20;99375.41;;;14.95;100.00
27294;BME280;14785;52.556;13.430;2023-04-24T04:40:46;99379.28;;;14.68;100.00
27294;BME280;14785;52.556;13.430;2023-04-24T04:43:12;99381.78;;;14.63;100.00
27294;BME280;14785;52.556;13.430;2023-04-24T04:45:38;99383.19;;;15.10;100.00
27294;BME280;14785;52.556;13.430;2023-04-24T04:48:05;99389.63;;;15.02;100.00
27294;BME280;14785;52.556;13.430;2023-04-24T04:50:32;99393.94;;;14.97;100.00
27294;BME280;14785;52.556;13.430;2023-04-24T04:52:58;99390.31;;;14.85;100.00
27294;BME280;14785;52.556;13.430;2023-04-24T04:55:23;99390.53;;;14.83;100.00
27294;BME280;14785;52.556;13.430;2023-04-24T04:57:49;99397.81;;;14.70;100.00
27294;BME280;14785;52.556;13.430;2023-04-24T05:00:14;99403.00;;;15.02;100.00
27294;BME280;14785;52.556;13.430;2023-04-24T05:02:40;99398.13;;;14.86;100.00
27294;BME280;14785;52.556;13.430;2023-04-24T05:05:06;99401.63;;;14.87;100.00
27294;BME280;14785;52.556;13.430;2023-04-24T05:07:32;99405.06;;;15.00;100.00
27294;BME280;14785;52.556;13.430;2023-04-24T05:09:58;99399.91;;;15.05;100.00
27294;BME280;14785;52.556;13.430;2023-04-24T05:12:23;99409.22;;;15.27;100.00
27294;BME280;14785;52.556;13.430;2023-04-24T05:14:49;99401.19;;;14.96;100.00
27294;BME280;14785;52.556;13.430;2023-04-24T05:17:15;99404.31;;;14.87;100.00
27294;BME280;14785;52.556;13.430;2023-04-24T05:19:40;99401.41;;;14.95;100.00
27294;BME280;14785;52.556;13.430;2023-04-24T05:22:06;99401.53;;;15.06;100.00
27294;BME280;14785;52.556;13.430;2023-04-24T05:24:35;99404.97;;;15.13;100.00
27294;BME280;14785;52.556;13.430;2023-04-24T05:27:02;99403.47;;;14.93;100.00
27294;BME280;14785;52.556;13.430;2023-04-24T05:29:30;99410.53;;;14.81;100.00
27294;BME280;14785;52.556;13.430;2023-04-24T05:31:59;99399.78;;;14.87;100.00
27294;BME280;14785;52.556;13.430;2023-04-24T05:34:25;99414.84;;;14.82;100.00
27294;BME280;14785;52.556;13.430;2023-04-24T05:36:50;99413.84;;;14.76;100.00
27294;BME280;14785;52.556;13.430;2023-04-24T05:39:16;99415.31;;;14.72;100.00
27294;BME280;14785;52.556;13.430;2023-04-24T05:41:42;99410.00;;;15.03;100.00
27294;BME280;14785;52.556;13.430;2023-04-24T05:44:08;99410.41;;;15.00;100.00
27294;BME280;14785;52.556;13.430;2023-04-24T05:46:33;99412.00;;;15.14;100.00
27294;BME280;14785;52.556;13.430;2023-04-24T05:48:58;99415.66;;;14.82;100.00
27294;BME280;14785;52.556;13.430;2023-04-24T05:51:24;99408.56;;;15.01;100.00
27294;BME280;14785;52.556;13.430;2023-04-24T05:53:49;99411.50;;;14.86;100.00
27294;BME280;14785;52.556;13.430;2023-04-24T05:56:15;99403.41;;;14.62;100.00
27294;BME280;14785;52.556;13.430;2023-04-24T05:58:41;99409.81;;;14.54;100.00
27294;BME280;14785;52.556;13.430;2023-04-24T06:01:07;99415.34;;;14.59;100.00
27294;BME280;14785;52.556;13.430;2023-04-24T06:03:33;99423.91;;;14.17;100.00
27294;BME280;14785;52.556;13.430;2023-04-24T06:05:58;99422.22;;;14.42;100.00
27294;BME280;14785;52.556;13.430;2023-04-24T06:08:24;99438.00;;;14.50;100.00
27294;BME280;14785;52.556;13.430;2023-04-24T06:10:50;99428.78;;;14.40;100.00
27294;BME280;14785;52.556;13.430;2023-04-24T06:13:16;99429.19;;;14.50;100.00
27294;BME280;14785;52.556;13.430;2023-04-24T06:15:41;99430.09;;;14.24;100.00
27294;BME280;14785;52.556;13.430;2023-04-24T06:18:07;99432.88;;;14.49;100.00
27294;BME280;14785;52.556;13.430;2023-04-24T06:20:35;99431.41;;;14.59;100.00
27294;BME280;14785;52.556;13.430;2023-04-24T06:23:00;99437.56;;;14.66;100.00
27294;BME280;14785;52.556;13.430;2023-04-24T06:25:26;99442.56;;;15.00;100.00
27294;BME280;14785;52.556;13.430;2023-04-24T06:27:55;99442.44;;;14.82;100.00
27294;BME280;14785;52.556;13.430;2023-04-24T06:30:21;99442.78;;;14.48;100.00
27294;BME280;14785;52.556;13.430;2023-04-24T06:32:52;99437.59;;;15.04;100.00
27294;BME280;14785;52.556;13.430;2023-04-24T06:35:18;99435.34;;;14.57;100.00
27294;BME280;14785;52.556;13.430;2023-04-24T06:37:43;99449.44;;;14.26;100.00
27294;BME280;14785;52.556;13.430;2023-04-24T06:40:09;99443.03;;;14.27;100.00
27294;BME280;14785;52.556;13.430;2023-04-24T06:42:36;99445.72;;;14.27;100.00
27294;BME280;14785;52.556;13.430;2023-04-24T06:45:02;99448.56;;;14.45;100.00
27294;BME280;14785;52.556;13.430;2023-04-24T06:47:28;99441.13;;;14.98;100.00
27294;BME280;14785;52.556;13.430;2023-04-24T06:49:53;99441.38;;;14.83;100.00
27294;BME280;14785;52.556;13.430;2023-04-24T06:52:20;99444.34;;;14.62;100.00
27294;BME280;14785;52.556;13.430;2023-04-24T06:54:46;99445.84;;;15.02;100.00
27294;BME280;14785;52.556;13.430;2023-04-24T06:57:11;99433.72;;;15.31;100.00
27294;BME280;14785;52.556;13.430;2023-04-24T06:59:37;99426.66;;;15.05;100.00
27294;BME280;14785;52.556;13.430;2023-04-24T07:02:02;99439.44;;;15.03;100.00
27294;BME280;14785;52.556;13.430;2023-04-24T07:04:28;99438.03;;;15.01;100.00
27294;BME280;14785;52.556;13.430;2023-04-24T07:06:54;99438.91;;;14.88;100.00
27294;BME280;14785;52.556;13.430;2023-04-24T07:09:21;99431.59;;;15.08;100.00
27294;BME280;14785;52.556;13.430;2023-04-24T07:11:47;99441.78;;;14.87;100.00
27294;BME280;14785;52.556;13.430;2023-04-24T07:14:13;99426.41;;;15.13;100.00
27294;BME280;14785;52.556;13.430;2023-04-24T07:16:38;99425.50;;;15.26;100.00
27294;BME280;14785;52.556;13.430;2023-04-24T07:19:04;99427.47;;;15.44;100.00
27294;BME280;14785;52.556;13.430;2023-04-24T07:21:29;99432.56;;;15.20;100.00
27294;BME280;14785;52.556;13.430;2023-04-24T07:23:56;99433.13;;;15.22;100.00
27294;BME280;14785;52.556;13.430;2023-04-24T07:26:21;99434.88;;;15.10;100.00
27294;BME280;14785;52.556;13.430;2023-04-24T07:28:47;99437.06;;;15.26;100.00
27294;BME280;14785;52.556;13.430;2023-04-24T07:31:12;99428.66;;;15.48;100.00
27294;BME280;14785;52.556;13.430;2023-04-24T07:33:38;99431.38;;;15.72;100.00
27294;BME280;14785;52.556;13.430;2023-04-24T07:36:04;99432.50;;;15.83;100.00
27294;BME280;14785;52.556;13.430;2023-04-24T07:38:30;99434.88;;;15.73;100.00
27294;BME280;14785;52.556;13.430;2023-04-24T07:40:56;99434.88;;;15.73;100.00
27294;BME280;14785;52.556;13.430;2023-04-24T07:43:21;99443.13;;;15.96;100.00
27294;BME280;14785;52.556;13.430;2023-04-24T07:45:49;99440.50;;;15.89;100.00
27294;BME280;14785;52.556;13.430;2023-04-24T07:48:15;99434.16;;;15.84;100.00
27294;BME280;14785;52.556;13.430;2023-04-24T07:50:41;99435.53;;;15.68;100.00
27294;BME280;14785;52.556;13.430;2023-04-24T07:53:06;99418.09;;;16.02;100.00
27294;BME280;14785;52.556;13.430;2023-04-24T07:55:32;99426.28;;;15.89;100.00
27294;BME280;14785;52.556;13.430;2023-04-24T07:57:57;99433.50;;;15.64;100.00
27294;BME280;14785;52.556;13.430;2023-04-24T08:00:23;99431.50;;;16.02;100.00
27294;BME280;14785;52.556;13.430;2023-04-24T08:02:48;99430.56;;;16.14;100.00
27294;BME280;14785;52.556;13.430;2023-04-24T08:05:14;99438.41;;;16.16;100.00
27294;BME280;14785;52.556;13.430;2023-04-24T08:07:39;99433.09;;;16.52;100.00
27294;BME280;14785;52.556;13.430;2023-04-24T08:10:09;99427.75;;;16.81;100.00
27294;BME280;14785;52.556;13.430;2023-04-24T08:12:35;99416.19;;;17.40;100.00
27294;BME280;14785;52.556;13.430;2023-04-24T08:15:00;99412.28;;;17.77;100.00
27294;BME280;14785;52.556;13.430;2023-04-24T08:17:26;99415.38;;;17.10;100.00
27294;BME280;14785;52.556;13.430;2023-04-24T08:19:51;99423.63;;;18.02;100.00
27294;BME280;14785;52.556;13.430;2023-04-24T08:22:18;99423.06;;;18.00;100.00
27294;BME280;14785;52.556;13.430;2023-04-24T08:24:44;99427.28;;;18.19;100.00
27294;BME280;14785;52.556;13.430;2023-04-24T08:27:09;99429.25;;;17.89;100.00
27294;BME280;14785;52.556;13.430;2023-04-24T08:29:36;99422.81;;;17.67;100.00
27294;BME280;14785;52.556;13.430;2023-04-24T08:32:01;99435.72;;;17.47;100.00
27294;BME280;14785;52.556;13.430;2023-04-24T08:34:27;99416.03;;;17.99;100.00
27294;BME280;14785;52.556;13.430;2023-04-24T08:36:53;99427.28;;;18.42;100.00
27294;BME280;14785;52.556;13.430;2023-04-24T08:39:18;99421.88;;;17.96;100.00
27294;BME280;14785;52.556;13.430;2023-04-24T08:41:44;99414.38;;;18.10;100.00
27294;BME280;14785;52.556;13.430;2023-04-24T08:44:10;99422.81;;;17.90;100.00
27294;BME280;14785;52.556;13.430;2023-04-24T08:46:37;99438.72;;;17.80;100.00
27294;BME280;14785;52.556;13.430;2023-04-24T08:49:03;99421.28;;;17.60;100.00
27294;BME280;14785;52.556;13.430;2023-04-24T08:51:28;99422.28;;;17.47;100.00
27294;BME280;14785;52.556;13.430;2023-04-24T08:53:55;99425.59;;;17.49;100.00
27294;BME280;14785;52.556;13.430;2023-04-24T08:56:22;99428.69;;;17.99;100.00
27294;BME280;14785;52.556;13.430;2023-04-24T08:58:50;99428.53;;;17.71;100.00
27294;BME280;14785;52.556;13.430;2023-04-24T09:01:18;99427.41;;;17.90;100.00
27294;BME280;14785;52.556;13.430;2023-04-24T09:03:45;99432.38;;;17.63;100.00
27294;BME280;14785;52.556;13.430;2023-04-24T09:06:11;99434.88;;;17.99;100.00
27294;BME280;14785;52.556;13.430;2023-04-24T09:08:38;99424.44;;;17.27;100.00
27294;BME280;14785;52.556;13.430;2023-04-24T09:11:05;99436.81;;;17.69;100.00
27294;BME280;14785;52.556;13.430;2023-04-24T09:13:30;99430.97;;;17.72;100.00
27294;BME280;14785;52.556;13.430;2023-04-24T09:15:57;99439.09;;;17.84;100.00
27294;BME280;14785;52.556;13.430;2023-04-24T09:18:22;99435.31;;;17.02;100.00
27294;BME280;14785;52.556;13.430;2023-04-24T09:21:06;99438.69;;;16.98;100.00
27294;BME280;14785;52.556;13.430;2023-04-24T09:23:32;99436.31;;;16.90;100.00
27294;BME280;14785;52.556;13.430;2023-04-24T09:25:59;99431.91;;;17.66;100.00
27294;BME280;14785;52.556;13.430;2023-04-24T09:28:35;99433.22;;;18.33;100.00
27294;BME280;14785;52.556;13.430;2023-04-24T09:31:08;99430.97;;;18.64;100.00
27294;BME280;14785;52.556;13.430;2023-04-24T09:33:34;99435.94;;;17.98;100.00
27294;BME280;14785;52.556;13.430;2023-04-24T09:35:59;99440.63;;;18.03;100.00
27294;BME280;14785;52.556;13.430;2023-04-24T09:38:35;99440.91;;;17.60;100.00
27294;BME280;14785;52.556;13.430;2023-04-24T09:41:13;99439.81;;;18.14;100.00
27294;BME280;14785;52.556;13.430;2023-04-24T09:43:39;99450.47;;;17.56;100.00
27294;BME280;14785;52.556;13.430;2023-04-24T09:46:07;99440.00;;;17.89;100.00
27294;BME280;14785;52.556;13.430;2023-04-24T09:48:36;99446.38;;;18.41;100.00
27294;BME280;14785;52.556;13.430;2023-04-24T09:51:04;99435.84;;;18.79;100.00
27294;BME280;14785;52.556;13.430;2023-04-24T09:53:32;99441.19;;;18.28;100.00
27294;BME280;14785;52.556;13.430;2023-04-24T09:56:08;99447.03;;;18.13;100.00
27294;BME280;14785;52.556;13.430;2023-04-24T09:58:37;99441.78;;;18.41;100.00
27294;BME280;14785;52.556;13.430;2023-04-24T10:01:03;99444.34;;;18.36;100.00
27294;BME280;14785;52.556;13.430;2023-04-24T10:03:32;99437.47;;;18.91;100.00
27294;BME280;14785;52.556;13.430;2023-04-24T10:06:03;99435.31;;;18.65;100.00
27294;BME280;14785;52.556;13.430;2023-04-24T10:08:35;99432.06;;;18.91;100.00
27294;BME280;14785;52.556;13.430;2023-04-24T10:11:01;99424.78;;;19.04;100.00
27294;BME280;14785;52.556;13.430;2023-04-24T10:13:27;99434.38;;;18.99;100.00
27294;BME280;14785;52.556;13.430;2023-04-24T10:15:53;99420.31;;;19.26;100.00
27294;BME280;14785;52.556;13.430;2023-04-24T10:18:20;99419.72;;;19.52;100.00
27294;BME280;14785;52.556;13.430;2023-04-24T10:20:47;99426.28;;;20.22;100.00
27294;BME280;14785;52.556;13.430;2023-04-24T10:23:14;99431.44;;;19.74;100.00
27294;BME280;14785;52.556;13.430;2023-04-24T10:25:40;99440.09;;;19.76;100.00
27294;BME280;14785;52.556;13.430;2023-04-24T10:28:06;99431.59;;;20.17;100.00
27294;BME280;14785;52.556;13.430;2023-04-24T10:30:33;99427.66;;;19.91;100.00
27294;BME280;14785;52.556;13.430;2023-04-24T10:33:03;99447.81;;;20.17;100.00
27294;BME280;14785;52.556;13.430;2023-04-24T10:35:31;99436.94;;;20.50;100.00
27294;BME280;14785;52.556;13.430;2023-04-24T10:38:01;99429.47;;;19.53;100.00
27294;BME280;14785;52.556;13.430;2023-04-24T10:40:33;99427.59;;;19.86;100.00
27294;BME280;14785;52.556;13.430;2023-04-24T10:43:02;99426.00;;;18.84;100.00
27294;BME280;14785;52.556;13.430;2023-04-24T10:45:28;99435.19;;;18.60;100.00
27294;BME280;14785;52.556;13.430;2023-04-24T10:48:02;99431.94;;;18.58;100.00
27294;BME280;14785;52.556;13.430;2023-04-24T10:50:29;99432.84;;;18.64;100.00
27294;BME280;14785;52.556;13.430;2023-04-24T10:53:06;99434.66;;;18.47;100.00
27294;BME280;14785;52.556;13.430;2023-04-24T10:55:45;99427.69;;;18.62;100.00
27294;BME280;14785;52.556;13.430;2023-04-24T10:58:13;99431.72;;;18.02;100.00
27294;BME280;14785;52.556;13.430;2023-04-24T11:00:40;99416.25;;;18.32;100.00
27294;BME280;14785;52.556;13.430;2023-04-24T11:03:21;99424.25;;;18.78;100.00
27294;BME280;14785;52.556;13.430;2023-04-24T11:06:01;99432.06;;;18.91;100.00
27294;BME280;14785;52.556;13.430;2023-04-24T11:11:11;99423.09;;;19.92;100.00
27294;BME280;14785;52.556;13.430;2023-04-24T11:16:31;99427.91;;;21.04;100.00
27294;BME280;14785;52.556;13.430;2023-04-24T11:19:07;99431.06;;;20.96;100.00
27294;BME280;14785;52.556;13.430;2023-04-24T11:21:54;99439.13;;;20.53;100.00
27294;BME280;14785;52.556;13.430;2023-04-24T11:27:06;99415.22;;;21.31;100.00
27294;BME280;14785;52.556;13.430;2023-04-24T11:34:50;99420.16;;;20.26;100.00
27294;BME280;14785;52.556;13.430;2023-04-24T11:37:17;99420.94;;;19.61;100.00
27294;BME280;14785;52.556;13.430;2023-04-24T11:39:43;99422.94;;;19.49;100.00
27294;BME280;14785;52.556;13.430;2023-04-24T11:42:09;99425.84;;;19.31;100.00
27294;BME280;14785;52.556;13.430;2023-04-24T11:44:35;99412.72;;;19.23;100.00
27294;BME280;14785;52.556;13.430;2023-04-24T11:47:04;99444.34;;;18.99;100.00
27294;BME280;14785;52.556;13.430;2023-04-24T11:49:30;99428.69;;;18.33;100.00
27294;BME280;14785;52.556;13.430;2023-04-24T11:51:56;99437.91;;;18.14;100.00
27294;BME280;14785;52.556;13.430;2023-04-24T11:54:21;99434.63;;;17.89;100.00
27294;BME280;14785;52.556;13.430;2023-04-24T11:56:48;99431.25;;;18.05;100.00
27294;BME280;14785;52.556;13.430;2023-04-24T11:59:14;99441.91;;;18.00;100.00
27294;BME280;14785;52.556;13.430;2023-04-24T12:01:46;99442.72;;;17.89;100.00
27294;BME280;14785;52.556;13.430;2023-04-24T12:04:13;99430.03;;;18.70;100.00
27294;BME280;14785;52.556;13.430;2023-04-24T12:06:39;99432.59;;;19.78;100.00
27294;BME280;14785;52.556;13.430;2023-04-24T12:09:04;99431.13;;;21.01;100.00
27294;BME280;14785;52.556;13.430;2023-04-24T12:11:30;99429.72;;;21.78;100.00
27294;BME280;14785;52.556;13.430;2023-04-24T12:13:56;99427.03;;;22.57;100.00
27294;BME280;14785;52.556;13.430;2023-04-24T12:16:21;99429.72;;;22.51;100.00
27294;BME280;14785;52.556;13.430;2023-04-24T12:18:46;99426.31;;;22.29;100.00
27294;BME280;14785;52.556;13.430;2023-04-24T12:21:19;99426.00;;;21.84;100.00
27294;BME280;14785;52.556;13.430;2023-04-24T12:23:45;99418.06;;;20.55;100.00
27294;BME280;14785;52.556;13.430;2023-04-24T12:26:12;99404.03;;;19.21;100.00
27294;BME280;14785;52.556;13.430;2023-04-24T12:28:40;99413.44;;;19.63;100.00
27294;BME280;14785;52.556;13.430;2023-04-24T12:31:07;99399.47;;;19.21;100.00
27294;BME280;14785;52.556;13.430;2023-04-24T12:33:34;99400.94;;;19.57;100.00
27294;BME280;14785;52.556;13.430;2023-04-24T12:36:00;99398.88;;;19.97;100.00
27294;BME280;14785;52.556;13.430;2023-04-24T12:38:27;99393.59;;;19.24;100.00
27294;BME280;14785;52.556;13.430;2023-04-24T12:41:03;99396.53;;;19.51;100.00
27294;BME280;14785;52.556;13.430;2023-04-24T12:43:29;99388.66;;;19.05;100.00
27294;BME280;14785;52.556;13.430;2023-04-24T12:45:55;99380.97;;;19.91;100.00
27294;BME280;14785;52.556;13.430;2023-04-24T12:48:20;99388.69;;;19.21;100.00
27294;BME280;14785;52.556;13.430;2023-04-24T12:50:47;99384.25;;;19.60;100.00